Altamonte Springs, Florida
Current Conditions -  °F | °C
As of 6:53 PM on Saturday 22 Nov 2014 (Local Time) from KORL Reporting Station
Overcast Overcast  
Wind Chill: 21°   Ceiling: 3400
Heat Index: 21°   Visibility: 10mi
Dew Point: 19°   Wind: 10mph
Humidity: 90%   Direction: 100°E
Pressure: 30.14"   Gusts: NA
Location:  28.67°N, 81.36°W
Report Text: KORL 222353Z 10009KT 10SM FEW030 BKN034 OVC047 21/19 A3014 RMK AO2 SLP211 60002 T02110194 10211 20206 58006
Loading
Personal Weather Stations






























Interactive Weather Map New forecast layout! Learn more

10-Day Weather Forecast

Advertisements
Track Severe Weather on mobile